sensor_id;sensor_type;location;lat;lon;timestamp;P1;durP1;ratioP1;P2;durP2;ratioP2
6791;SDS011;3433;48.730;9.108;2022-12-07T00:01:21;13.50;;;7.87;;
6791;SDS011;3433;48.730;9.108;2022-12-07T00:04:10;13.47;;;8.07;;
6791;SDS011;3433;48.730;9.108;2022-12-07T00:06:59;12.20;;;7.80;;
6791;SDS011;3433;48.730;9.108;2022-12-07T00:09:47;15.33;;;8.13;;
6791;SDS011;3433;48.730;9.108;2022-12-07T00:12:34;11.67;;;8.03;;
6791;SDS011;3433;48.730;9.108;2022-12-07T00:15:23;14.30;;;6.93;;
6791;SDS011;3433;48.730;9.108;2022-12-07T00:18:10;13.60;;;7.47;;
6791;SDS011;3433;48.730;9.108;2022-12-07T00:21:00;16.37;;;8.10;;
6791;SDS011;3433;48.730;9.108;2022-12-07T00:23:49;13.27;;;8.40;;
6791;SDS011;3433;48.730;9.108;2022-12-07T00:26:37;12.97;;;8.00;;
6791;SDS011;3433;48.730;9.108;2022-12-07T00:29:26;14.37;;;9.43;;
6791;SDS011;3433;48.730;9.108;2022-12-07T00:32:15;14.00;;;7.77;;
6791;SDS011;3433;48.730;9.108;2022-12-07T00:35:02;12.17;;;7.53;;
6791;SDS011;3433;48.730;9.108;2022-12-07T00:37:49;11.33;;;7.57;;
6791;SDS011;3433;48.730;9.108;2022-12-07T00:40:37;12.47;;;7.67;;
6791;SDS011;3433;48.730;9.108;2022-12-07T00:43:30;14.60;;;8.10;;
6791;SDS011;3433;48.730;9.108;2022-12-07T00:46:17;11.57;;;7.67;;
6791;SDS011;3433;48.730;9.108;2022-12-07T00:49:07;12.10;;;8.40;;
6791;SDS011;3433;48.730;9.108;2022-12-07T00:51:54;11.20;;;8.17;;
6791;SDS011;3433;48.730;9.108;2022-12-07T00:54:41;12.87;;;8.20;;
6791;SDS011;3433;48.730;9.108;2022-12-07T00:57:29;11.93;;;8.60;;
6791;SDS011;3433;48.730;9.108;2022-12-07T01:00:17;13.50;;;8.07;;
6791;SDS011;3433;48.730;9.108;2022-12-07T01:03:05;13.37;;;7.47;;
6791;SDS011;3433;48.730;9.108;2022-12-07T01:05:54;14.00;;;8.23;;
6791;SDS011;3433;48.730;9.108;2022-12-07T01:08:42;12.17;;;7.50;;
6791;SDS011;3433;48.730;9.108;2022-12-07T01:11:30;13.03;;;7.90;;
6791;SDS011;3433;48.730;9.108;2022-12-07T01:14:17;10.27;;;7.73;;
6791;SDS011;3433;48.730;9.108;2022-12-07T01:17:04;11.63;;;7.80;;
6791;SDS011;3433;48.730;9.108;2022-12-07T01:19:52;12.40;;;7.70;;
6791;SDS011;3433;48.730;9.108;2022-12-07T01:22:41;11.70;;;7.80;;
6791;SDS011;3433;48.730;9.108;2022-12-07T01:25:29;14.10;;;8.87;;
6791;SDS011;3433;48.730;9.108;2022-12-07T01:28:16;13.23;;;8.57;;
6791;SDS011;3433;48.730;9.108;2022-12-07T01:31:05;13.63;;;7.93;;
6791;SDS011;3433;48.730;9.108;2022-12-07T01:33:55;15.20;;;8.90;;
6791;SDS011;3433;48.730;9.108;2022-12-07T01:36:44;12.00;;;8.07;;
6791;SDS011;3433;48.730;9.108;2022-12-07T01:39:33;19.63;;;9.17;;
6791;SDS011;3433;48.730;9.108;2022-12-07T01:42:20;15.63;;;9.47;;
6791;SDS011;3433;48.730;9.108;2022-12-07T01:48:26;14.33;;;8.23;;
6791;SDS011;3433;48.730;9.108;2022-12-07T01:51:15;12.90;;;8.40;;
6791;SDS011;3433;48.730;9.108;2022-12-07T01:54:02;14.80;;;9.00;;
6791;SDS011;3433;48.730;9.108;2022-12-07T01:56:51;16.43;;;8.93;;
6791;SDS011;3433;48.730;9.108;2022-12-07T01:59:41;15.63;;;9.43;;
6791;SDS011;3433;48.730;9.108;2022-12-07T02:02:30;14.33;;;8.83;;
6791;SDS011;3433;48.730;9.108;2022-12-07T02:05:20;15.40;;;9.03;;
6791;SDS011;3433;48.730;9.108;2022-12-07T02:08:08;13.50;;;8.53;;
6791;SDS011;3433;48.730;9.108;2022-12-07T02:10:57;16.37;;;9.50;;
6791;SDS011;3433;48.730;9.108;2022-12-07T02:13:46;18.77;;;9.40;;
6791;SDS011;3433;48.730;9.108;2022-12-07T02:16:35;16.10;;;9.50;;
6791;SDS011;3433;48.730;9.108;2022-12-07T02:19:52;17.10;;;9.90;;
6791;SDS011;3433;48.730;9.108;2022-12-07T02:23:04;15.50;;;9.27;;
6791;SDS011;3433;48.730;9.108;2022-12-07T02:26:23;13.83;;;8.47;;
6791;SDS011;3433;48.730;9.108;2022-12-07T02:29:34;14.27;;;8.50;;
6791;SDS011;3433;48.730;9.108;2022-12-07T02:32:24;15.43;;;8.60;;
6791;SDS011;3433;48.730;9.108;2022-12-07T02:35:17;14.07;;;9.10;;
6791;SDS011;3433;48.730;9.108;2022-12-07T02:38:08;16.90;;;9.40;;
6791;SDS011;3433;48.730;9.108;2022-12-07T02:41:02;15.00;;;9.30;;
6791;SDS011;3433;48.730;9.108;2022-12-07T02:43:54;17.40;;;9.33;;
6791;SDS011;3433;48.730;9.108;2022-12-07T02:46:49;16.03;;;9.07;;
6791;SDS011;3433;48.730;9.108;2022-12-07T02:49:40;15.87;;;9.13;;
6791;SDS011;3433;48.730;9.108;2022-12-07T02:52:28;16.03;;;9.97;;
6791;SDS011;3433;48.730;9.108;2022-12-07T02:55:16;15.30;;;8.80;;
6791;SDS011;3433;48.730;9.108;2022-12-07T02:58:10;16.50;;;8.70;;
6791;SDS011;3433;48.730;9.108;2022-12-07T03:01:11;14.77;;;8.40;;
6791;SDS011;3433;48.730;9.108;2022-12-07T03:04:13;12.97;;;8.50;;
6791;SDS011;3433;48.730;9.108;2022-12-07T03:07:11;18.77;;;8.43;;
6791;SDS011;3433;48.730;9.108;2022-12-07T03:10:07;14.80;;;8.87;;
6791;SDS011;3433;48.730;9.108;2022-12-07T03:13:02;14.93;;;8.90;;
6791;SDS011;3433;48.730;9.108;2022-12-07T03:15:53;18.20;;;8.73;;
6791;SDS011;3433;48.730;9.108;2022-12-07T03:18:48;13.90;;;8.00;;
6791;SDS011;3433;48.730;9.108;2022-12-07T03:21:40;16.13;;;9.53;;
6791;SDS011;3433;48.730;9.108;2022-12-07T03:24:31;13.57;;;8.77;;
6791;SDS011;3433;48.730;9.108;2022-12-07T03:27:23;15.30;;;8.70;;
6791;SDS011;3433;48.730;9.108;2022-12-07T03:30:14;14.83;;;8.90;;
6791;SDS011;3433;48.730;9.108;2022-12-07T03:33:06;12.63;;;7.73;;
6791;SDS011;3433;48.730;9.108;2022-12-07T03:35:57;14.37;;;8.30;;
6791;SDS011;3433;48.730;9.108;2022-12-07T03:38:49;17.60;;;10.07;;
6791;SDS011;3433;48.730;9.108;2022-12-07T03:41:41;13.87;;;8.70;;
6791;SDS011;3433;48.730;9.108;2022-12-07T03:44:29;13.43;;;8.00;;
6791;SDS011;3433;48.730;9.108;2022-12-07T03:47:18;14.13;;;8.20;;
6791;SDS011;3433;48.730;9.108;2022-12-07T03:50:11;14.10;;;8.37;;
6791;SDS011;3433;48.730;9.108;2022-12-07T03:53:07;14.27;;;9.20;;
6791;SDS011;3433;48.730;9.108;2022-12-07T03:56:00;13.53;;;8.77;;
6791;SDS011;3433;48.730;9.108;2022-12-07T03:58:48;12.00;;;7.93;;
6791;SDS011;3433;48.730;9.108;2022-12-07T04:01:36;14.53;;;8.37;;
6791;SDS011;3433;48.730;9.108;2022-12-07T04:04:24;14.93;;;8.50;;
6791;SDS011;3433;48.730;9.108;2022-12-07T04:07:11;12.90;;;8.80;;
6791;SDS011;3433;48.730;9.108;2022-12-07T04:09:59;14.40;;;8.90;;
6791;SDS011;3433;48.730;9.108;2022-12-07T04:12:48;14.83;;;8.80;;
6791;SDS011;3433;48.730;9.108;2022-12-07T04:15:35;14.03;;;9.17;;
6791;SDS011;3433;48.730;9.108;2022-12-07T04:18:23;11.70;;;7.50;;
6791;SDS011;3433;48.730;9.108;2022-12-07T04:21:10;12.60;;;7.80;;
6791;SDS011;3433;48.730;9.108;2022-12-07T04:23:57;13.50;;;8.40;;
6791;SDS011;3433;48.730;9.108;2022-12-07T04:26:45;13.23;;;7.80;;
6791;SDS011;3433;48.730;9.108;2022-12-07T04:29:34;14.00;;;8.30;;
6791;SDS011;3433;48.730;9.108;2022-12-07T04:32:22;16.80;;;8.90;;
6791;SDS011;3433;48.730;9.108;2022-12-07T04:35:09;10.60;;;7.10;;
6791;SDS011;3433;48.730;9.108;2022-12-07T04:37:56;13.93;;;8.50;;
6791;SDS011;3433;48.730;9.108;2022-12-07T04:40:44;13.43;;;8.33;;
6791;SDS011;3433;48.730;9.108;2022-12-07T04:43:31;13.07;;;7.93;;
6791;SDS011;3433;48.730;9.108;2022-12-07T04:46:20;13.53;;;8.30;;
6791;SDS011;3433;48.730;9.108;2022-12-07T04:49:07;14.03;;;7.90;;
6791;SDS011;3433;48.730;9.108;2022-12-07T04:51:55;13.70;;;8.07;;
6791;SDS011;3433;48.730;9.108;2022-12-07T04:54:42;12.90;;;7.53;;
6791;SDS011;3433;48.730;9.108;2022-12-07T04:57:30;13.23;;;7.13;;
6791;SDS011;3433;48.730;9.108;2022-12-07T05:00:17;9.10;;;5.97;;
6791;SDS011;3433;48.730;9.108;2022-12-07T05:03:07;7.50;;;5.30;;
6791;SDS011;3433;48.730;9.108;2022-12-07T05:05:54;7.40;;;4.93;;
6791;SDS011;3433;48.730;9.108;2022-12-07T05:08:41;9.70;;;5.60;;
6791;SDS011;3433;48.730;9.108;2022-12-07T05:11:29;9.83;;;5.57;;
6791;SDS011;3433;48.730;9.108;2022-12-07T05:14:26;10.57;;;5.87;;
6791;SDS011;3433;48.730;9.108;2022-12-07T05:17:13;7.80;;;5.13;;
6791;SDS011;3433;48.730;9.108;2022-12-07T05:20:04;6.50;;;4.30;;
6791;SDS011;3433;48.730;9.108;2022-12-07T05:22:52;7.17;;;4.63;;
6791;SDS011;3433;48.730;9.108;2022-12-07T05:25:39;7.47;;;4.60;;
6791;SDS011;3433;48.730;9.108;2022-12-07T05:28:27;6.30;;;3.90;;
6791;SDS011;3433;48.730;9.108;2022-12-07T05:31:14;7.90;;;5.10;;
6791;SDS011;3433;48.730;9.108;2022-12-07T05:34:01;5.70;;;4.00;;
6791;SDS011;3433;48.730;9.108;2022-12-07T05:36:52;6.50;;;4.20;;
6791;SDS011;3433;48.730;9.108;2022-12-07T05:39:40;10.47;;;5.70;;
6791;SDS011;3433;48.730;9.108;2022-12-07T05:42:28;9.40;;;5.80;;
6791;SDS011;3433;48.730;9.108;2022-12-07T05:45:15;10.00;;;5.20;;
6791;SDS011;3433;48.730;9.108;2022-12-07T05:48:03;9.03;;;5.83;;
6791;SDS011;3433;48.730;9.108;2022-12-07T05:50:50;14.63;;;7.47;;
6791;SDS011;3433;48.730;9.108;2022-12-07T05:53:39;15.53;;;9.60;;
6791;SDS011;3433;48.730;9.108;2022-12-07T05:56:27;14.70;;;7.80;;
6791;SDS011;3433;48.730;9.108;2022-12-07T05:59:14;12.93;;;7.37;;
6791;SDS011;3433;48.730;9.108;2022-12-07T06:02:13;10.73;;;6.63;;
6791;SDS011;3433;48.730;9.108;2022-12-07T06:05:06;11.43;;;6.23;;
6791;SDS011;3433;48.730;9.108;2022-12-07T06:07:54;9.50;;;5.80;;
6791;SDS011;3433;48.730;9.108;2022-12-07T06:10:42;9.90;;;6.40;;
6791;SDS011;3433;48.730;9.108;2022-12-07T06:13:30;10.40;;;6.70;;
6791;SDS011;3433;48.730;9.108;2022-12-07T06:16:16;10.03;;;5.90;;
6791;SDS011;3433;48.730;9.108;2022-12-07T06:19:04;14.17;;;7.57;;
6791;SDS011;3433;48.730;9.108;2022-12-07T06:21:51;11.82;;;7.95;;
6791;SDS011;3433;48.730;9.108;2022-12-07T06:24:38;10.53;;;7.17;;
6791;SDS011;3433;48.730;9.108;2022-12-07T06:27:28;11.60;;;6.83;;
6791;SDS011;3433;48.730;9.108;2022-12-07T06:30:15;10.70;;;6.33;;
6791;SDS011;3433;48.730;9.108;2022-12-07T06:33:03;10.40;;;6.50;;
6791;SDS011;3433;48.730;9.108;2022-12-07T06:35:50;10.70;;;5.97;;
6791;SDS011;3433;48.730;9.108;2022-12-07T06:38:37;9.40;;;6.00;;
6791;SDS011;3433;48.730;9.108;2022-12-07T06:41:24;11.07;;;6.90;;
6791;SDS011;3433;48.730;9.108;2022-12-07T06:44:13;13.10;;;7.70;;
6791;SDS011;3433;48.730;9.108;2022-12-07T06:47:02;12.37;;;7.10;;
6791;SDS011;3433;48.730;9.108;2022-12-07T06:49:50;14.27;;;7.13;;
6791;SDS011;3433;48.730;9.108;2022-12-07T06:52:37;13.27;;;7.80;;
6791;SDS011;3433;48.730;9.108;2022-12-07T06:55:24;11.37;;;8.07;;
6791;SDS011;3433;48.730;9.108;2022-12-07T06:58:11;12.87;;;7.13;;
6791;SDS011;3433;48.730;9.108;2022-12-07T07:01:00;11.13;;;7.03;;
6791;SDS011;3433;48.730;9.108;2022-12-07T07:03:48;8.60;;;6.30;;
6791;SDS011;3433;48.730;9.108;2022-12-07T07:06:35;9.60;;;6.30;;
6791;SDS011;3433;48.730;9.108;2022-12-07T07:09:22;10.43;;;6.90;;
6791;SDS011;3433;48.730;9.108;2022-12-07T07:12:10;11.23;;;5.90;;
6791;SDS011;3433;48.730;9.108;2022-12-07T07:14:57;9.40;;;5.67;;
6791;SDS011;3433;48.730;9.108;2022-12-07T07:17:46;6.63;;;5.00;;
6791;SDS011;3433;48.730;9.108;2022-12-07T07:20:33;10.30;;;6.00;;
6791;SDS011;3433;48.730;9.108;2022-12-07T07:23:21;10.40;;;5.93;;
6791;SDS011;3433;48.730;9.108;2022-12-07T07:26:08;10.53;;;6.00;;
6791;SDS011;3433;48.730;9.108;2022-12-07T07:28:56;10.80;;;6.60;;
6791;SDS011;3433;48.730;9.108;2022-12-07T07:31:43;8.50;;;5.73;;
6791;SDS011;3433;48.730;9.108;2022-12-07T07:34:32;10.10;;;6.37;;
6791;SDS011;3433;48.730;9.108;2022-12-07T07:37:19;10.60;;;6.20;;
6791;SDS011;3433;48.730;9.108;2022-12-07T07:40:07;9.93;;;6.40;;
6791;SDS011;3433;48.730;9.108;2022-12-07T07:42:54;12.87;;;6.70;;
6791;SDS011;3433;48.730;9.108;2022-12-07T07:45:42;10.33;;;6.20;;
6791;SDS011;3433;48.730;9.108;2022-12-07T07:48:31;13.00;;;7.17;;
6791;SDS011;3433;48.730;9.108;2022-12-07T07:51:19;14.30;;;6.77;;
6791;SDS011;3433;48.730;9.108;2022-12-07T07:54:07;13.03;;;6.70;;
6791;SDS011;3433;48.730;9.108;2022-12-07T07:56:54;15.43;;;6.33;;
6791;SDS011;3433;48.730;9.108;2022-12-07T07:59:41;13.80;;;8.07;;
6791;SDS011;3433;48.730;9.108;2022-12-07T08:02:29;13.40;;;7.33;;
6791;SDS011;3433;48.730;9.108;2022-12-07T08:05:16;10.17;;;6.47;;
6791;SDS011;3433;48.730;9.108;2022-12-07T08:08:05;10.87;;;6.30;;
6791;SDS011;3433;48.730;9.108;2022-12-07T08:10:52;11.57;;;6.10;;
6791;SDS011;3433;48.730;9.108;2022-12-07T08:13:40;9.73;;;6.70;;
6791;SDS011;3433;48.730;9.108;2022-12-07T08:16:27;13.17;;;6.30;;
6791;SDS011;3433;48.730;9.108;2022-12-07T08:19:14;10.23;;;6.80;;
6791;SDS011;3433;48.730;9.108;2022-12-07T08:22:02;12.00;;;7.40;;
6791;SDS011;3433;48.730;9.108;2022-12-07T08:24:50;11.53;;;6.50;;
6791;SDS011;3433;48.730;9.108;2022-12-07T08:27:38;9.73;;;6.07;;
6791;SDS011;3433;48.730;9.108;2022-12-07T08:30:25;10.23;;;5.90;;
6791;SDS011;3433;48.730;9.108;2022-12-07T08:33:13;12.53;;;6.07;;
6791;SDS011;3433;48.730;9.108;2022-12-07T08:36:00;9.93;;;5.93;;
6791;SDS011;3433;48.730;9.108;2022-12-07T08:38:48;9.47;;;5.93;;
6791;SDS011;3433;48.730;9.108;2022-12-07T08:41:37;10.87;;;6.20;;
6791;SDS011;3433;48.730;9.108;2022-12-07T08:44:25;8.67;;;5.97;;
6791;SDS011;3433;48.730;9.108;2022-12-07T08:47:12;10.17;;;6.10;;
6791;SDS011;3433;48.730;9.108;2022-12-07T08:49:59;10.30;;;5.20;;
6791;SDS011;3433;48.730;9.108;2022-12-07T08:52:49;9.60;;;6.07;;
6791;SDS011;3433;48.730;9.108;2022-12-07T08:55:39;7.83;;;5.30;;
6791;SDS011;3433;48.730;9.108;2022-12-07T08:58:28;9.43;;;5.70;;
6791;SDS011;3433;48.730;9.108;2022-12-07T09:01:15;8.77;;;5.63;;
6791;SDS011;3433;48.730;9.108;2022-12-07T09:04:03;12.50;;;5.77;;
6791;SDS011;3433;48.730;9.108;2022-12-07T09:06:50;13.10;;;6.90;;
6791;SDS011;3433;48.730;9.108;2022-12-07T09:09:37;9.33;;;5.10;;
6791;SDS011;3433;48.730;9.108;2022-12-07T09:12:25;7.93;;;5.57;;
6791;SDS011;3433;48.730;9.108;2022-12-07T09:15:14;7.90;;;4.60;;
6791;SDS011;3433;48.730;9.108;2022-12-07T09:18:01;8.00;;;4.93;;
6791;SDS011;3433;48.730;9.108;2022-12-07T09:20:48;9.63;;;5.47;;
6791;SDS011;3433;48.730;9.108;2022-12-07T09:23:36;8.57;;;5.30;;
6791;SDS011;3433;48.730;9.108;2022-12-07T09:26:23;10.03;;;5.20;;
6791;SDS011;3433;48.730;9.108;2022-12-07T09:29:11;9.50;;;5.20;;
6791;SDS011;3433;48.730;9.108;2022-12-07T09:32:00;10.97;;;4.30;;
6791;SDS011;3433;48.730;9.108;2022-12-07T09:34:47;7.60;;;4.73;;
6791;SDS011;3433;48.730;9.108;2022-12-07T09:37:35;6.83;;;4.30;;
6791;SDS011;3433;48.730;9.108;2022-12-07T09:40:22;11.53;;;6.17;;
6791;SDS011;3433;48.730;9.108;2022-12-07T09:43:12;9.93;;;5.30;;
6791;SDS011;3433;48.730;9.108;2022-12-07T09:46:01;9.53;;;4.77;;
6791;SDS011;3433;48.730;9.108;2022-12-07T09:48:51;8.43;;;5.47;;
6791;SDS011;3433;48.730;9.108;2022-12-07T09:51:38;9.00;;;5.27;;
6791;SDS011;3433;48.730;9.108;2022-12-07T09:54:25;8.37;;;5.03;;
6791;SDS011;3433;48.730;9.108;2022-12-07T09:57:13;7.73;;;4.43;;
6791;SDS011;3433;48.730;9.108;2022-12-07T10:00:00;8.27;;;4.60;;
6791;SDS011;3433;48.730;9.108;2022-12-07T10:02:51;8.40;;;4.47;;
6791;SDS011;3433;48.730;9.108;2022-12-07T10:05:45;6.60;;;4.00;;
6791;SDS011;3433;48.730;9.108;2022-12-07T10:08:34;7.87;;;4.70;;
6791;SDS011;3433;48.730;9.108;2022-12-07T10:11:21;6.67;;;3.80;;
6791;SDS011;3433;48.730;9.108;2022-12-07T10:14:12;6.70;;;4.30;;
6791;SDS011;3433;48.730;9.108;2022-12-07T10:17:00;8.23;;;4.13;;
6791;SDS011;3433;48.730;9.108;2022-12-07T10:19:47;6.30;;;3.80;;
6791;SDS011;3433;48.730;9.108;2022-12-07T10:22:36;6.67;;;3.83;;
6791;SDS011;3433;48.730;9.108;2022-12-07T10:25:25;5.63;;;4.00;;
6791;SDS011;3433;48.730;9.108;2022-12-07T10:28:14;7.20;;;3.70;;
6791;SDS011;3433;48.730;9.108;2022-12-07T10:31:15;5.50;;;4.10;;
6791;SDS011;3433;48.730;9.108;2022-12-07T10:34:12;6.47;;;4.40;;
6791;SDS011;3433;48.730;9.108;2022-12-07T10:37:13;7.00;;;3.60;;
6791;SDS011;3433;48.730;9.108;2022-12-07T10:40:10;5.37;;;3.27;;
6791;SDS011;3433;48.730;9.108;2022-12-07T10:43:16;6.10;;;3.80;;
6791;SDS011;3433;48.730;9.108;2022-12-07T10:49:54;6.33;;;3.80;;
6791;SDS011;3433;48.730;9.108;2022-12-07T10:53:07;7.87;;;4.03;;
6791;SDS011;3433;48.730;9.108;2022-12-07T10:56:25;6.10;;;4.07;;
6791;SDS011;3433;48.730;9.108;2022-12-07T11:02:59;6.50;;;4.30;;
6791;SDS011;3433;48.730;9.108;2022-12-07T11:06:09;7.83;;;3.70;;
6791;SDS011;3433;48.730;9.108;2022-12-07T11:09:14;6.70;;;4.30;;
6791;SDS011;3433;48.730;9.108;2022-12-07T11:12:19;6.10;;;4.00;;
6791;SDS011;3433;48.730;9.108;2022-12-07T11:15:15;4.93;;;3.70;;
6791;SDS011;3433;48.730;9.108;2022-12-07T11:18:07;7.33;;;4.57;;
6791;SDS011;3433;48.730;9.108;2022-12-07T11:21:04;6.80;;;3.90;;
6791;SDS011;3433;48.730;9.108;2022-12-07T11:23:56;4.53;;;3.33;;
6791;SDS011;3433;48.730;9.108;2022-12-07T11:26:57;5.57;;;3.70;;
6791;SDS011;3433;48.730;9.108;2022-12-07T11:30:08;4.70;;;3.67;;
6791;SDS011;3433;48.730;9.108;2022-12-07T11:33:04;7.07;;;4.30;;
6791;SDS011;3433;48.730;9.108;2022-12-07T11:36:05;7.77;;;4.47;;
6791;SDS011;3433;48.730;9.108;2022-12-07T11:39:04;5.63;;;3.60;;
6791;SDS011;3433;48.730;9.108;2022-12-07T11:42:13;7.20;;;3.70;;
6791;SDS011;3433;48.730;9.108;2022-12-07T11:45:12;6.10;;;4.20;;
6791;SDS011;3433;48.730;9.108;2022-12-07T11:48:03;7.83;;;4.23;;
6791;SDS011;3433;48.730;9.108;2022-12-07T11:50:59;5.00;;;3.63;;
6791;SDS011;3433;48.730;9.108;2022-12-07T11:53:49;7.33;;;4.20;;
6791;SDS011;3433;48.730;9.108;2022-12-07T11:56:40;7.70;;;3.70;;
6791;SDS011;3433;48.730;9.108;2022-12-07T11:59:29;3.83;;;3.10;;
6791;SDS011;3433;48.730;9.108;2022-12-07T12:02:22;6.93;;;3.77;;
6791;SDS011;3433;48.730;9.108;2022-12-07T12:05:15;3.70;;;2.90;;
6791;SDS011;3433;48.730;9.108;2022-12-07T12:08:10;4.83;;;3.20;;
6791;SDS011;3433;48.730;9.108;2022-12-07T12:11:05;5.30;;;2.90;;
6791;SDS011;3433;48.730;9.108;2022-12-07T12:14:05;4.17;;;3.13;;
6791;SDS011;3433;48.730;9.108;2022-12-07T12:20:19;5.60;;;2.90;;
6791;SDS011;3433;48.730;9.108;2022-12-07T12:23:10;3.63;;;2.83;;
6791;SDS011;3433;48.730;9.108;2022-12-07T12:26:03;4.70;;;2.60;;
6791;SDS011;3433;48.730;9.108;2022-12-07T12:28:54;5.20;;;3.43;;
6791;SDS011;3433;48.730;9.108;2022-12-07T12:31:46;4.53;;;2.90;;
6791;SDS011;3433;48.730;9.108;2022-12-07T12:35:02;8.80;;;5.80;;
6791;SDS011;3433;48.730;9.108;2022-12-07T12:38:25;4.40;;;3.73;;
6791;SDS011;3433;48.730;9.108;2022-12-07T12:45:04;5.20;;;4.17;;
6791;SDS011;3433;48.730;9.108;2022-12-07T12:54:26;6.73;;;4.90;;
6791;SDS011;3433;48.730;9.108;2022-12-07T12:57:15;6.77;;;4.93;;
6791;SDS011;3433;48.730;9.108;2022-12-07T13:03:04;7.13;;;4.13;;
6791;SDS011;3433;48.730;9.108;2022-12-07T13:06:06;9.70;;;4.87;;
6791;SDS011;3433;48.730;9.108;2022-12-07T13:09:15;10.37;;;6.47;;
6791;SDS011;3433;48.730;9.108;2022-12-07T13:12:11;8.70;;;4.93;;
6791;SDS011;3433;48.730;9.108;2022-12-07T13:15:00;8.00;;;5.27;;
6791;SDS011;3433;48.730;9.108;2022-12-07T13:17:58;4.67;;;3.70;;
6791;SDS011;3433;48.730;9.108;2022-12-07T13:20:48;20.37;;;6.77;;
6791;SDS011;3433;48.730;9.108;2022-12-07T13:23:37;9.03;;;3.77;;
6791;SDS011;3433;48.730;9.108;2022-12-07T13:26:41;5.20;;;3.90;;
6791;SDS011;3433;48.730;9.108;2022-12-07T13:29:30;7.23;;;4.70;;
6791;SDS011;3433;48.730;9.108;2022-12-07T13:32:24;7.63;;;3.57;;
6791;SDS011;3433;48.730;9.108;2022-12-07T13:35:31;10.60;;;4.87;;
6791;SDS011;3433;48.730;9.108;2022-12-07T13:38:22;6.97;;;3.70;;
6791;SDS011;3433;48.730;9.108;2022-12-07T13:41:13;17.50;;;9.20;;
6791;SDS011;3433;48.730;9.108;2022-12-07T13:44:05;4.87;;;4.13;;
6791;SDS011;3433;48.730;9.108;2022-12-07T13:46:57;4.23;;;3.50;;
6791;SDS011;3433;48.730;9.108;2022-12-07T13:49:51;3.73;;;3.23;;
6791;SDS011;3433;48.730;9.108;2022-12-07T13:52:42;5.37;;;4.73;;
6791;SDS011;3433;48.730;9.108;2022-12-07T13:55:31;6.47;;;4.50;;
6791;SDS011;3433;48.730;9.108;2022-12-07T13:58:19;4.90;;;3.60;;
6791;SDS011;3433;48.730;9.108;2022-12-07T14:01:07;5.30;;;2.97;;
6791;SDS011;3433;48.730;9.108;2022-12-07T14:03:55;6.30;;;4.43;;
6791;SDS011;3433;48.730;9.108;2022-12-07T14:06:46;5.90;;;4.20;;
6791;SDS011;3433;48.730;9.108;2022-12-07T14:09:36;6.53;;;4.67;;
6791;SDS011;3433;48.730;9.108;2022-12-07T14:12:23;10.00;;;4.13;;
6791;SDS011;3433;48.730;9.108;2022-12-07T14:15:15;5.63;;;3.77;;
6791;SDS011;3433;48.730;9.108;2022-12-07T14:21:15;5.10;;;3.90;;
6791;SDS011;3433;48.730;9.108;2022-12-07T14:24:11;4.10;;;3.27;;
6791;SDS011;3433;48.730;9.108;2022-12-07T14:27:02;7.90;;;4.90;;
6791;SDS011;3433;48.730;9.108;2022-12-07T14:29:50;4.33;;;3.60;;
6791;SDS011;3433;48.730;9.108;2022-12-07T14:32:37;5.43;;;4.10;;
6791;SDS011;3433;48.730;9.108;2022-12-07T14:35:27;4.70;;;3.83;;
6791;SDS011;3433;48.730;9.108;2022-12-07T14:38:15;16.13;;;4.70;;
6791;SDS011;3433;48.730;9.108;2022-12-07T14:41:04;5.23;;;3.53;;
6791;SDS011;3433;48.730;9.108;2022-12-07T14:44:10;6.00;;;3.97;;
6791;SDS011;3433;48.730;9.108;2022-12-07T14:46:58;6.33;;;4.30;;
6791;SDS011;3433;48.730;9.108;2022-12-07T14:49:46;4.93;;;3.80;;
6791;SDS011;3433;48.730;9.108;2022-12-07T14:52:34;6.10;;;4.17;;
6791;SDS011;3433;48.730;9.108;2022-12-07T14:55:23;5.80;;;4.70;;
6791;SDS011;3433;48.730;9.108;2022-12-07T14:58:12;7.23;;;4.73;;
6791;SDS011;3433;48.730;9.108;2022-12-07T15:01:01;6.60;;;4.47;;
6791;SDS011;3433;48.730;9.108;2022-12-07T15:03:48;5.83;;;4.50;;
6791;SDS011;3433;48.730;9.108;2022-12-07T15:06:35;5.20;;;3.87;;
6791;SDS011;3433;48.730;9.108;2022-12-07T15:09:24;6.97;;;4.40;;
6791;SDS011;3433;48.730;9.108;2022-12-07T15:12:12;8.80;;;5.20;;
6791;SDS011;3433;48.730;9.108;2022-12-07T15:14:59;8.90;;;4.83;;
6791;SDS011;3433;48.730;9.108;2022-12-07T15:17:47;9.53;;;5.20;;
6791;SDS011;3433;48.730;9.108;2022-12-07T15:20:34;9.67;;;5.40;;
6791;SDS011;3433;48.730;9.108;2022-12-07T15:23:21;8.47;;;5.73;;
6791;SDS011;3433;48.730;9.108;2022-12-07T15:26:10;8.30;;;6.00;;
6791;SDS011;3433;48.730;9.108;2022-12-07T15:29:01;11.73;;;6.07;;
6791;SDS011;3433;48.730;9.108;2022-12-07T15:31:48;9.10;;;6.00;;
6791;SDS011;3433;48.730;9.108;2022-12-07T15:34:36;9.17;;;5.53;;
6791;SDS011;3433;48.730;9.108;2022-12-07T15:37:24;6.50;;;5.47;;
6791;SDS011;3433;48.730;9.108;2022-12-07T15:40:11;13.27;;;5.70;;
6791;SDS011;3433;48.730;9.108;2022-12-07T15:43:00;7.97;;;4.93;;
6791;SDS011;3433;48.730;9.108;2022-12-07T15:45:49;7.27;;;4.27;;
6791;SDS011;3433;48.730;9.108;2022-12-07T15:48:35;17.60;;;8.00;;
6791;SDS011;3433;48.730;9.108;2022-12-07T15:51:22;15.10;;;8.00;;
6791;SDS011;3433;48.730;9.108;2022-12-07T15:54:11;9.77;;;6.70;;
6791;SDS011;3433;48.730;9.108;2022-12-07T15:57:02;8.87;;;5.60;;
6791;SDS011;3433;48.730;9.108;2022-12-07T15:59:51;11.10;;;6.33;;
6791;SDS011;3433;48.730;9.108;2022-12-07T16:02:38;10.60;;;6.37;;
6791;SDS011;3433;48.730;9.108;2022-12-07T16:05:26;10.77;;;6.93;;
6791;SDS011;3433;48.730;9.108;2022-12-07T16:08:13;14.63;;;8.70;;
6791;SDS011;3433;48.730;9.108;2022-12-07T16:11:04;15.80;;;9.73;;
6791;SDS011;3433;48.730;9.108;2022-12-07T16:13:51;15.47;;;9.43;;
6791;SDS011;3433;48.730;9.108;2022-12-07T16:16:40;15.07;;;8.40;;
6791;SDS011;3433;48.730;9.108;2022-12-07T16:19:28;12.67;;;7.40;;
6791;SDS011;3433;48.730;9.108;2022-12-07T16:22:15;12.10;;;7.07;;
6791;SDS011;3433;48.730;9.108;2022-12-07T16:25:02;11.03;;;7.17;;
6791;SDS011;3433;48.730;9.108;2022-12-07T16:27:50;10.90;;;6.57;;
6791;SDS011;3433;48.730;9.108;2022-12-07T16:30:37;14.33;;;8.70;;
6791;SDS011;3433;48.730;9.108;2022-12-07T16:33:26;11.03;;;7.07;;
6791;SDS011;3433;48.730;9.108;2022-12-07T16:36:14;17.57;;;7.20;;
6791;SDS011;3433;48.730;9.108;2022-12-07T16:39:02;14.37;;;7.47;;
6791;SDS011;3433;48.730;9.108;2022-12-07T16:41:50;13.30;;;8.40;;
6791;SDS011;3433;48.730;9.108;2022-12-07T16:44:38;15.30;;;9.20;;
6791;SDS011;3433;48.730;9.108;2022-12-07T16:47:26;14.03;;;9.00;;
6791;SDS011;3433;48.730;9.108;2022-12-07T16:50:25;24.77;;;17.10;;
6791;SDS011;3433;48.730;9.108;2022-12-07T16:53:12;16.73;;;11.17;;
6791;SDS011;3433;48.730;9.108;2022-12-07T16:56:01;18.23;;;11.93;;
6791;SDS011;3433;48.730;9.108;2022-12-07T16:58:57;15.83;;;10.47;;
6791;SDS011;3433;48.730;9.108;2022-12-07T17:01:44;15.10;;;11.33;;
6791;SDS011;3433;48.730;9.108;2022-12-07T17:04:32;17.70;;;9.83;;
6791;SDS011;3433;48.730;9.108;2022-12-07T17:07:22;15.97;;;9.47;;
6791;SDS011;3433;48.730;9.108;2022-12-07T17:10:09;18.53;;;9.80;;
6791;SDS011;3433;48.730;9.108;2022-12-07T17:12:58;16.17;;;8.37;;
6791;SDS011;3433;48.730;9.108;2022-12-07T17:15:51;15.80;;;8.13;;
6791;SDS011;3433;48.730;9.108;2022-12-07T17:18:40;12.50;;;7.40;;
6791;SDS011;3433;48.730;9.108;2022-12-07T17:21:28;17.23;;;8.40;;
6791;SDS011;3433;48.730;9.108;2022-12-07T17:24:17;14.87;;;8.10;;
6791;SDS011;3433;48.730;9.108;2022-12-07T17:27:05;15.97;;;8.20;;
6791;SDS011;3433;48.730;9.108;2022-12-07T17:29:53;15.67;;;9.00;;
6791;SDS011;3433;48.730;9.108;2022-12-07T17:32:41;13.13;;;7.40;;
6791;SDS011;3433;48.730;9.108;2022-12-07T17:35:28;14.97;;;8.40;;
6791;SDS011;3433;48.730;9.108;2022-12-07T17:38:16;16.47;;;8.67;;
6791;SDS011;3433;48.730;9.108;2022-12-07T17:41:09;13.00;;;8.27;;
6791;SDS011;3433;48.730;9.108;2022-12-07T17:43:57;13.63;;;8.20;;
6791;SDS011;3433;48.730;9.108;2022-12-07T17:46:45;16.10;;;8.07;;
6791;SDS011;3433;48.730;9.108;2022-12-07T17:49:34;14.77;;;8.27;;
6791;SDS011;3433;48.730;9.108;2022-12-07T17:52:22;16.20;;;9.50;;
6791;SDS011;3433;48.730;9.108;2022-12-07T17:55:27;21.70;;;12.93;;
6791;SDS011;3433;48.730;9.108;2022-12-07T17:58:16;26.40;;;18.40;;
6791;SDS011;3433;48.730;9.108;2022-12-07T18:01:07;25.00;;;18.00;;